Flight Track Log - Related Links

Times and Time Zones

All times are in EDT time to prevent confusion due to time zone crossing. See the CPZ5750 flight status page for this flight to view local times or setup timezone preferences in your user account.

Time Position Orientation Groundspeed Altitude Reporting Facility
EDT Latitude Longitude Course Direction KTS MPH feet Rate Location/Type
Wed 04:47:37 PM 44.8667 -93.1000 65° Northeast 223 257 3,400  Level Minneapolis TRACON
Wed 04:48:38 PM 44.9294 -93.0689 19° North 262 302 5,500 2,488 Climbing Minneapolis Center
Wed 04:49:00 PM 45.0268 -92.6647 68° East  Level FlightAware Approximate
Wed 04:49:40 PM 45.0031 -93.0561 North 272 313 8,500  Level Minneapolis Center
Wed 04:50:00 PM 45.0664 -92.5261 68° East  Level FlightAware Approximate
Wed 04:50:42 PM 45.0539 -92.9372 59° Northeast 298 343 11,100  Level Minneapolis Center
Wed 04:51:00 PM 45.1000 -92.3852 90° East  Level FlightAware Approximate
Wed 04:51:44 PM 45.0989 -92.8214 61° Northeast 333 383 13,500  Level Minneapolis Center
Wed 04:52:00 PM 45.1387 -92.2287 70° East  Level FlightAware Approximate
Wed 04:52:46 PM 45.1450 -92.7022 61° Northeast 344 396 15,700  Level Minneapolis Center
Wed 04:53:00 PM 45.1809 -92.0740 65° Northeast  Level FlightAware Approximate
Wed 04:53:48 PM 45.1933 -92.5756 62° Northeast 365 420 17,600  Level Minneapolis Center
Wed 04:54:50 PM 45.2425 -92.4486 61° Northeast 367 422 19,500 1,742 Climbing Minneapolis Center
Wed 04:55:52 PM 45.2925 -92.3131 62° Northeast 385 443 21,200 1,742 Climbing Minneapolis Center
Wed 04:56:54 PM 45.3236 -92.1300 76° East 401 461 23,100 1,645 Climbing Minneapolis Center
Wed 04:57:56 PM 45.3475 -91.9717 78° East 410 472 24,600 1,392 Climbing Minneapolis Center
Wed 04:58:59 PM 45.3694 -91.8106 79° East 415 478 26,000 1,172 Climbing Minneapolis Center
Wed 05:00:04 PM 45.3925 -91.6450 79° East 427 491 27,100 945 Climbing Minneapolis Center
Wed 05:01:06 PM 45.4125 -91.4756 80° East 433 498 28,000 1,016 Climbing Minneapolis Center
Wed 05:02:08 PM 45.4394 -91.2692 79° East 442 509 29,200 1,065 Climbing Minneapolis Center
Wed 05:03:10 PM 45.4589 -91.1169 80° East 445 512 30,200 1,016 Climbing Minneapolis Center
Wed 05:04:12 PM 45.4978 -90.9133 75° East 446 513 31,300 1,065 Climbing Minneapolis Center
Wed 05:05:14 PM 45.5431 -90.7489 68° East 447 514 32,400 968 Climbing Minneapolis Center
Wed 05:06:16 PM 45.5858 -90.5869 69° East 440 506 33,300 823 Climbing Minneapolis Center
Wed 05:07:18 PM 45.6283 -90.4225 70° East 441 507 34,100 774 Climbing Minneapolis Center
Wed 05:08:20 PM 45.6694 -90.2597 70° East 439 505 34,900 435 Climbing Minneapolis Center
Wed 05:09:22 PM 45.7197 -90.0642 70° East 439 505 35,000 48 Climbing Minneapolis Center
Wed 05:10:25 PM 45.7617 -89.8992 70° East 442 509 35,000  Level Minneapolis Center
Wed 05:11:27 PM 45.8028 -89.7353 70° East 440 506 35,000  Level Minneapolis Center
Wed 05:12:29 PM 45.8453 -89.5664 70° East 442 509 35,000  Level Minneapolis Center
Wed 05:13:31 PM 45.8881 -89.3919 71° East 442 509 35,000  Level Minneapolis Center
Wed 05:14:33 PM 45.9300 -89.2242 70° East 445 512 35,000  Level Minneapolis Center
Wed 05:15:35 PM 45.9700 -89.0578 71° East 443 510 35,000  Level Minneapolis Center
Wed 05:16:37 PM 46.0144 -88.8731 71° East 455 524 35,000  Level Minneapolis Center
Wed 05:17:39 PM 46.0558 -88.7031 71° East 455 524 35,000  Level Minneapolis Center
Wed 05:18:41 PM 46.0975 -88.5292 71° East 458 527 35,000  Level Minneapolis Center
Wed 05:19:43 PM 46.1464 -88.3222 71° East 458 527 35,000  Level Minneapolis Center
Wed 05:20:45 PM 46.1867 -88.1478 71° East 458 527 35,000  Level Minneapolis Center
Wed 05:21:47 PM 46.2258 -87.9819 71° East 459 528 35,000  Level Minneapolis Center
Wed 05:22:50 PM 46.2661 -87.8072 72° East 459 528 35,000  Level Minneapolis Center
Wed 05:23:52 PM 46.3056 -87.6319 72° East 458 527 35,000  Level Minneapolis Center
Wed 05:24:54 PM 46.3539 -87.4186 72° East 463 533 35,000  Level Minneapolis Center
Wed 05:25:56 PM 46.3636 -87.2347 86° East 461 531 35,000  Level Minneapolis Center
Wed 05:26:58 PM 46.3697 -87.0525 87° East 454 522 35,000  Level Minneapolis Center
Wed 05:28:00 PM 46.3733 -86.8697 88° East 454 522 35,000  Level Minneapolis Center
Wed 05:29:02 PM 46.3781 -86.6875 88° East 453 521 35,000  Level Minneapolis Center
Wed 05:30:04 PM 46.3825 -86.5056 88° East 453 521 35,000  Level Minneapolis Center
Wed 05:31:06 PM 46.3872 -86.2825 88° East 459 528 35,000  Level Minneapolis Center
Wed 05:32:08 PM 46.3908 -86.0972 88° East 459 528 35,000  Level Minneapolis Center
Wed 05:33:11 PM 46.3947 -85.9119 88° East 460 529 35,000  Level Minneapolis Center
Wed 05:34:13 PM 46.3981 -85.7250 88° East 463 533 35,000  Level Minneapolis Center
Wed 05:35:15 PM 46.4008 -85.5353 89° East 468 539 35,000  Level Minneapolis Center
Wed 05:36:17 PM 46.4039 -85.3447 89° East 472 543 35,000  Level Minneapolis Center
Wed 05:37:08 PM 46.3833 -85.1500 99° East 480 552 35,000  Level Toronto Center
Wed 05:38:08 PM 46.4000 -84.9500 83° East 490 564 35,000  Level Toronto Center
Wed 05:39:08 PM 46.4000 -84.7667 90° East 500 575 35,000  Level Toronto Center
Wed 05:40:08 PM 46.4000 -84.5333 90° East 500 575 35,000  Level Toronto Center
Wed 05:41:08 PM 46.4000 -84.3500 90° East 510 587 35,000  Level Toronto Center
Wed 05:42:08 PM 46.4000 -84.1333 90° East 510 587 35,000  Level Toronto Center
Wed 05:43:08 PM 46.4000 -83.9333 90° East 510 587 35,000  Level Toronto Center
Wed 05:44:08 PM 46.4167 -83.7167 84° East 520 598 35,000  Level Toronto Center
Wed 05:45:08 PM 46.4000 -83.5000 96° East 520 598 35,000  Level Toronto Center
Wed 05:46:08 PM 46.4000 -83.3000 90° East 520 598 35,000  Level Toronto Center
Wed 05:47:08 PM 46.4333 -83.0833 77° East 520 598 35,000  Level Toronto Center
Wed 05:48:08 PM 46.4500 -82.9000 82° East 530 610 35,000  Level Toronto Center
Wed 05:49:08 PM 46.4833 -82.6500 79° East 530 610 35,000  Level Toronto Center
Wed 05:50:08 PM 46.5000 -82.4667 82° East 530 610 35,000  Level Toronto Center
Wed 05:51:08 PM 46.5167 -82.2500 84° East 530 610 35,000  Level Toronto Center
Wed 05:52:08 PM 46.5333 -82.0333 84° East 540 621 35,000  Level Toronto Center
Wed 05:53:08 PM 46.5667 -81.8167 77° East 530 610 35,000  Level Toronto Center
Wed 05:54:08 PM 46.5833 -81.6167 83° East 530 610 35,000  Level Toronto Center
Wed 05:55:08 PM 46.6167 -81.4000 77° East 530 610 35,000  Level Toronto Center
Wed 05:56:08 PM 46.6333 -81.1833 84° East 530 610 35,000  Level Toronto Center
Wed 05:57:08 PM 46.6500 -80.9667 84° East 540 621 35,000  Level Toronto Center
Wed 05:58:08 PM 46.6667 -80.7500 84° East 530 610 35,000  Level Toronto Center
Wed 05:59:08 PM 46.6333 -80.5500 104° East 510 587 35,000  Level Toronto Center
Wed 06:00:08 PM 46.6167 -80.3667 97° East 510 587 35,000  Level Toronto Center
Wed 06:01:08 PM 46.5833 -80.1667 104° East 510 587 35,000  Level Toronto Center
Wed 06:02:08 PM 46.5500 -79.9500 103° East 510 587 35,000  Level Toronto Center
Wed 06:03:08 PM 46.5333 -79.7500 97° East 510 587 35,000  Level Toronto Center
Wed 06:04:08 PM 46.5000 -79.5333 103° East 520 598 35,000  Level Toronto Center
Wed 06:05:08 PM 46.4667 -79.3333 104° East 510 587 35,000  Level Toronto Center
Wed 06:06:08 PM 46.4333 -79.1167 103° East 510 587 35,000  Level Toronto Center
Wed 06:07:08 PM 46.4000 -78.9333 105° East 520 598 35,000  Level Toronto Center
Wed 06:08:08 PM 46.3833 -78.7167 96° East 510 587 35,000  Level Toronto Center
Wed 06:09:08 PM 46.3500 -78.5167 104° East 510 587 35,000  Level Toronto Center
Wed 06:10:08 PM 46.3000 -78.3333 111° Southeast 520 598 35,000  Level Toronto Center
Wed 06:11:08 PM 46.2833 -78.1167 96° East 520 598 35,000  Level Toronto Center
Wed 06:12:08 PM 46.2500 -77.9167 103° East 520 598 35,000  Level Toronto Center
Wed 06:13:08 PM 46.2167 -77.7000 102° East 520 598 35,000  Level Toronto Center
Wed 06:14:08 PM 46.1833 -77.5167 105° East 520 598 35,000  Level Toronto Center
Wed 06:15:08 PM 46.1333 -77.3000 108° East 510 587 35,000  Level Toronto Center
Wed 06:16:08 PM 46.1167 -77.1000 97° East 510 587 35,000  Level Toronto Center
Wed 06:17:08 PM 46.0833 -76.9167 105° East 510 587 35,000  Level Toronto Center
Wed 06:18:08 PM 46.0500 -76.7000 102° East 520 598 35,000  Level Toronto Center
Wed 06:19:02 PM 46.0333 -76.5667 100° East 510 587 35,000  Level Montreal Center
Wed 06:20:02 PM 45.9833 -76.3500 108° East 520 598 35,000  Level Montreal Center
Wed 06:21:02 PM 45.9500 -76.1333 102° East 520 598 35,000  Level Montreal Center
Wed 06:22:02 PM 45.9167 -75.9500 105° East 520 598 35,000  Level Montreal Center
Wed 06:23:02 PM 45.8667 -75.7833 113° Southeast 500 575 35,000  Level Montreal Center
Wed 06:24:02 PM 45.7833 -75.6333 129° Southeast 470 541 35,000  Level Montreal Center
Wed 06:25:02 PM 45.6833 -75.4833 134° Southeast 470 541 35,000  Level Montreal Center
Wed 06:26:02 PM 45.5833 -75.3667 141° Southeast 470 541 35,000  Level Montreal Center
Wed 06:27:02 PM 45.4833 -75.2500 141° Southeast 470 541 35,000  Level Montreal Center
Wed 06:28:02 PM 45.4000 -75.1167 132° Southeast 470 541 35,000  Level Montreal Center
Wed 06:29:02 PM 45.3000 -74.9667 133° Southeast 470 541 35,000  Level Montreal Center
Wed 06:30:02 PM 45.2167 -74.8333 132° Southeast 470 541 35,000  Level Montreal Center
Wed 06:31:02 PM 45.1167 -74.7167 141° Southeast 470 541 35,000  Level Montreal Center
Wed 06:32:02 PM 45.0333 -74.5667 128° Southeast 470 541 35,000  Level Montreal Center
Wed 06:33:02 PM 44.9500 -74.4500 135° Southeast 470 541 35,000  Level Montreal Center
Wed 06:34:02 PM 44.8500 -74.3167 137° Southeast 470 541 35,000  Level Montreal Center
Wed 06:35:02 PM 44.7500 -74.1833 137° Southeast 470 541 35,000  Level Montreal Center
Wed 06:36:20 PM 44.6281 -74.1289 162° South 423 487 35,000  Level Boston Center
Wed 06:37:20 PM 44.5097 -74.1053 172° South 428 493 35,000 -182 Level Boston Center
Wed 06:38:32 PM 44.3683 -74.0808 173° South 428 493 34,600 -1,364 Descending Boston Center
Wed 06:39:32 PM 44.2500 -74.0603 173° South 428 493 32,000 -2,800 Descending Boston Center
Wed 06:40:32 PM 44.1169 -74.0364 173° South 434 499 29,000 -2,900 Descending Boston Center
Wed 06:41:32 PM 43.9983 -74.0189 174° South 440 506 26,200 -2,650 Descending Boston Center
Wed 06:42:32 PM 43.8819 -73.9956 172° South 433 498 23,700 -2,550 Descending Boston Center
Wed 06:43:32 PM 43.7678 -73.9753 173° South 423 487 21,100 -2,550 Descending Boston Center
Wed 06:44:32 PM 43.6636 -73.9583 173° South 407 468 18,600 -2,250 Descending Boston Center
Wed 06:45:32 PM 43.5722 -73.9389 171° South 384 442 16,600 -2,150 Descending Boston Center
Wed 06:46:32 PM 43.4725 -73.9219 173° South 373 429 14,300 -2,550 Descending Boston Center
Wed 06:47:32 PM 43.3642 -73.9022 172° South 361 415 11,500 -1,900 Descending Boston Center
Wed 06:48:32 PM 43.2769 -73.8858 172° South 342 394 10,500 -1,400 Descending Boston Center
Wed 06:49:02 PM 43.2394 -73.8822 176° South 285 328 9,400 -2,400 Descending Boston Center
Wed 06:49:32 PM 43.2000 -73.8669 164° South 297 342 8,100 -2,164 Descending Boston Center
Wed 06:50:03 PM 43.1606 -73.8603 173° South 278 320 7,200 -2,044 Descending Boston Center
Wed 06:51:03 PM 43.0836 -73.8472 173° South 282 325 5,000 -2,033 Descending Boston Center
Wed 06:52:04 PM 43.0108 -73.8314 171° South 267 307 3,100 -1,475 Descending Boston Center
Wed 06:53:05 PM 42.9361 -73.8183 173° South 247 284 2,000 -744 Descending Boston Center
Wed 06:54:05 PM 42.8778 -73.8114 175° South 190 219 1,600 -400 Descending Boston Center

Login

Don't have an account? Register now (free) for customized features, flight alerts, and more!